createdAt,value
2019-06-26T00:02:20.110Z,24.90
2019-06-26T00:04:49.886Z,24.80
2019-06-26T00:07:19.676Z,24.80
2019-06-26T00:09:49.430Z,24.80
2019-06-26T00:12:19.204Z,24.70
2019-06-26T00:14:48.978Z,24.60
2019-06-26T00:17:18.721Z,24.60
2019-06-26T00:19:48.480Z,24.60
2019-06-26T00:22:18.997Z,24.50
2019-06-26T00:24:48.708Z,24.50
2019-06-26T00:27:18.487Z,24.40
2019-06-26T00:29:48.284Z,24.40
2019-06-26T00:32:18.082Z,24.30
2019-06-26T00:34:47.806Z,24.30
2019-06-26T00:37:17.538Z,24.20
2019-06-26T00:39:47.243Z,24.10
2019-06-26T00:42:16.962Z,24.10
2019-06-26T00:44:46.694Z,24.10
2019-06-26T00:47:16.520Z,24.10
2019-06-26T00:49:46.598Z,24.00
2019-06-26T00:52:16.352Z,23.90
2019-06-26T00:54:46.043Z,23.90
2019-06-26T00:57:15.820Z,23.90
2019-06-26T00:59:45.563Z,23.80
2019-06-26T01:02:15.269Z,23.80
2019-06-26T01:04:47.040Z,23.80
2019-06-26T01:07:16.712Z,23.70
2019-06-26T01:09:46.387Z,23.60
2019-06-26T01:12:16.152Z,23.60
2019-06-26T01:14:45.951Z,23.50
2019-06-26T01:17:15.722Z,23.50
2019-06-26T01:19:45.402Z,23.40
2019-06-26T01:22:15.151Z,23.40
2019-06-26T01:24:45.051Z,23.40
2019-06-26T01:27:14.955Z,23.40
2019-06-26T01:29:44.654Z,23.30
2019-06-26T01:32:14.356Z,23.20
2019-06-26T01:34:44.148Z,23.20
2019-06-26T01:37:13.894Z,23.20
2019-06-26T01:39:43.619Z,23.10
2019-06-26T01:42:13.309Z,23.10
2019-06-26T01:44:43.071Z,23.00
2019-06-26T01:47:12.781Z,22.90
2019-06-26T01:49:42.549Z,22.80
2019-06-26T01:52:12.267Z,22.70
2019-06-26T01:54:42.195Z,22.60
2019-06-26T01:57:11.858Z,22.60
2019-06-26T01:59:41.533Z,22.50
2019-06-26T02:02:11.356Z,22.50
2019-06-26T02:04:41.061Z,22.40
2019-06-26T02:07:10.889Z,22.30
2019-06-26T02:09:40.786Z,22.20
2019-06-26T02:12:10.962Z,22.20
2019-06-26T02:14:40.652Z,22.10
2019-06-26T02:17:10.410Z,22.10
2019-06-26T02:19:40.274Z,22.00
2019-06-26T02:22:09.957Z,21.90
2019-06-26T02:24:39.712Z,21.90
2019-06-26T02:27:09.562Z,21.90
2019-06-26T02:29:39.276Z,21.80
2019-06-26T02:32:09.011Z,21.80
2019-06-26T02:34:38.721Z,21.70
2019-06-26T02:37:08.535Z,21.60
2019-06-26T02:39:38.328Z,21.50
2019-06-26T02:42:08.054Z,21.50
2019-06-26T02:44:52.458Z,21.50
2019-06-26T02:47:19.705Z,21.40
2019-06-26T02:49:40.437Z,21.40
2019-06-26T02:52:10.751Z,21.30
2019-06-26T02:54:40.487Z,21.30
2019-06-26T02:57:10.230Z,21.20
2019-06-26T02:59:40.012Z,21.10
2019-06-26T03:02:09.727Z,21.10
2019-06-26T03:04:39.373Z,21.10
2019-06-26T03:07:09.215Z,21.10
2019-06-26T03:09:38.927Z,21.00
2019-06-26T03:12:08.726Z,20.90
2019-06-26T03:14:38.423Z,20.80
2019-06-26T03:17:08.128Z,20.90
2019-06-26T03:19:37.857Z,20.80
2019-06-26T03:22:07.728Z,20.80
2019-06-26T03:24:37.521Z,20.80
2019-06-26T03:27:09.122Z,20.70
2019-06-26T03:29:38.601Z,20.70
2019-06-26T03:32:08.685Z,20.70
2019-06-26T03:34:38.360Z,20.70
2019-06-26T03:37:08.173Z,20.70
2019-06-26T03:39:38.363Z,20.60
2019-06-26T03:42:08.190Z,20.60
2019-06-26T03:44:37.933Z,20.60
2019-06-26T03:47:07.605Z,20.60
2019-06-26T03:49:37.368Z,20.60
2019-06-26T03:52:07.059Z,20.50
2019-06-26T03:54:36.819Z,20.40
2019-06-26T03:57:06.694Z,20.40
2019-06-26T03:59:36.552Z,20.40
2019-06-26T04:02:06.407Z,20.30
2019-06-26T04:04:36.083Z,20.20
2019-06-26T04:07:05.753Z,20.10
2019-06-26T04:09:35.491Z,20.10
2019-06-26T04:12:05.903Z,20.10
2019-06-26T04:14:35.767Z,20.20
2019-06-26T04:17:05.605Z,20.20
2019-06-26T04:19:35.279Z,20.30
2019-06-26T04:22:05.524Z,20.40
2019-06-26T04:24:35.469Z,20.40
2019-06-26T04:27:05.375Z,20.40
2019-06-26T04:29:35.280Z,20.30
2019-06-26T04:32:05.021Z,20.40
2019-06-26T04:34:34.728Z,20.40
2019-06-26T04:37:04.423Z,20.40
2019-06-26T04:39:34.189Z,20.50
2019-06-26T04:42:04.294Z,20.40
2019-06-26T04:44:34.050Z,20.40
2019-06-26T04:47:03.848Z,20.30
2019-06-26T04:49:33.596Z,20.30
2019-06-26T04:52:03.376Z,20.30
2019-06-26T04:54:33.138Z,20.50
2019-06-26T04:57:03.110Z,20.60
2019-06-26T04:59:32.830Z,20.50
2019-06-26T05:02:02.727Z,20.40
2019-06-26T05:04:32.467Z,20.60
2019-06-26T05:07:02.205Z,20.70
2019-06-26T05:09:31.892Z,20.70
2019-06-26T05:12:01.595Z,20.70
2019-06-26T05:14:31.407Z,20.70
2019-06-26T05:17:01.227Z,20.90
2019-06-26T05:19:31.048Z,20.90
2019-06-26T05:22:00.805Z,20.90
2019-06-26T05:24:30.555Z,21.00
2019-06-26T05:27:00.393Z,21.00
2019-06-26T05:29:30.705Z,21.10
2019-06-26T05:32:00.385Z,21.20
2019-06-26T05:34:31.174Z,21.50
2019-06-26T05:37:01.216Z,21.60
2019-06-26T05:39:31.640Z,21.70
2019-06-26T05:42:01.918Z,21.80
2019-06-26T05:44:31.723Z,21.80
2019-06-26T05:47:01.512Z,21.90
2019-06-26T05:49:31.325Z,22.10
2019-06-26T05:52:02.155Z,22.20
2019-06-26T05:54:32.114Z,22.00
2019-06-26T05:57:01.931Z,22.00
2019-06-26T05:59:31.694Z,21.70
2019-06-26T06:02:01.429Z,21.50
2019-06-26T06:04:31.196Z,21.30
2019-06-26T06:07:00.919Z,21.30
2019-06-26T06:09:30.618Z,21.30
2019-06-26T06:12:00.386Z,21.40
2019-06-26T06:14:30.199Z,21.60
2019-06-26T06:16:59.943Z,21.50
2019-06-26T06:19:29.665Z,21.50
2019-06-26T06:21:59.557Z,21.60
2019-06-26T06:24:29.295Z,21.80
2019-06-26T06:26:59.010Z,22.00
2019-06-26T06:29:30.840Z,22.30
2019-06-26T06:32:00.788Z,22.40
2019-06-26T06:34:30.460Z,22.70
2019-06-26T06:37:00.183Z,23.00
2019-06-26T06:39:30.059Z,23.10
2019-06-26T06:41:59.876Z,23.30
2019-06-26T06:44:29.690Z,23.20
2019-06-26T06:47:04.022Z,23.10
2019-06-26T06:49:31.014Z,22.80
2019-06-26T06:52:00.880Z,22.70
2019-06-26T06:54:30.809Z,22.70
2019-06-26T06:57:00.586Z,22.60
2019-06-26T06:59:32.608Z,22.60
2019-06-26T07:02:02.381Z,22.60
2019-06-26T07:04:32.209Z,22.80
2019-06-26T07:07:01.927Z,23.00
2019-06-26T07:09:32.365Z,23.00
2019-06-26T07:12:02.075Z,23.20
2019-06-26T07:14:31.869Z,23.10
2019-06-26T07:17:20.054Z,23.20
2019-06-26T07:19:48.867Z,23.30
2019-06-26T07:22:20.082Z,23.50
2019-06-26T07:24:49.903Z,23.70
2019-06-26T07:27:19.966Z,23.70
2019-06-26T07:29:50.430Z,23.80
2019-06-26T07:32:22.245Z,23.80
2019-06-26T07:34:52.164Z,23.90
2019-06-26T07:37:23.122Z,23.80
2019-06-26T07:39:57.582Z,24.00
2019-06-26T07:42:24.964Z,23.90
2019-06-26T07:44:54.744Z,24.00
2019-06-26T07:47:41.573Z,24.20
2019-06-26T07:49:56.772Z,24.20
2019-06-26T07:52:26.528Z,24.30
2019-06-26T07:54:59.094Z,24.40
2019-06-26T07:57:29.918Z,24.20
2019-06-26T08:00:03.105Z,24.30
2019-06-26T08:02:35.418Z,24.40
2019-06-26T08:05:10.174Z,24.50
2019-06-26T08:07:42.202Z,24.50
2019-06-26T08:10:21.855Z,24.60
2019-06-26T08:12:51.902Z,24.80
2019-06-26T08:15:21.894Z,24.80
2019-06-26T08:18:00.519Z,24.90
2019-06-26T08:20:24.555Z,25.00
2019-06-26T08:22:54.461Z,25.20
2019-06-26T08:25:24.331Z,25.20
2019-06-26T08:27:54.064Z,25.10
2019-06-26T08:30:24.533Z,25.10
2019-06-26T08:32:54.601Z,25.20
2019-06-26T08:35:24.381Z,25.20
2019-06-26T08:38:09.037Z,25.20
2019-06-26T08:40:25.632Z,25.20
2019-06-26T08:42:55.716Z,25.00
2019-06-26T08:45:25.640Z,25.30
2019-06-26T08:47:55.390Z,25.30
2019-06-26T08:50:25.377Z,25.20
2019-06-26T08:52:55.219Z,25.30
2019-06-26T08:55:25.346Z,25.40
2019-06-26T08:57:55.165Z,25.30
2019-06-26T09:00:25.177Z,25.30
2019-06-26T09:02:55.105Z,25.50
2019-06-26T09:05:25.282Z,25.40
2019-06-26T09:07:55.342Z,25.40
2019-06-26T09:10:25.062Z,25.40
2019-06-26T09:12:54.899Z,25.80
2019-06-26T09:15:26.053Z,25.90
2019-06-26T09:17:55.934Z,25.90
2019-06-26T09:20:34.494Z,25.90
2019-06-26T09:23:04.562Z,25.90
2019-06-26T09:25:34.605Z,25.80
2019-06-26T09:28:04.671Z,25.70
2019-06-26T09:30:34.674Z,25.80
2019-06-26T09:33:05.780Z,25.70
2019-06-26T09:35:35.500Z,25.80
2019-06-26T09:38:05.605Z,25.80
2019-06-26T09:40:54.602Z,25.70
2019-06-26T09:43:25.058Z,25.90
2019-06-26T09:45:55.429Z,25.90
2019-06-26T09:48:25.190Z,26.00
2019-06-26T09:50:54.925Z,26.10
2019-06-26T09:53:24.750Z,26.30
2019-06-26T09:55:54.585Z,26.60
2019-06-26T09:58:33.565Z,26.50
2019-06-26T10:01:03.385Z,26.70
2019-06-26T10:03:33.653Z,26.80
2019-06-26T10:06:03.542Z,27.00
2019-06-26T10:08:33.608Z,27.00
2019-06-26T10:11:03.775Z,27.00
2019-06-26T10:13:33.731Z,27.00
2019-06-26T10:16:03.819Z,27.00
2019-06-26T10:18:33.556Z,27.10
2019-06-26T10:21:03.631Z,27.20
2019-06-26T10:23:33.438Z,27.20
2019-06-26T10:26:03.859Z,27.30
2019-06-26T10:28:33.737Z,27.30
2019-06-26T10:31:03.489Z,27.20
2019-06-26T10:33:33.277Z,26.90
2019-06-26T10:36:03.163Z,27.00
2019-06-26T10:38:33.160Z,27.00
2019-06-26T10:41:02.926Z,27.20
2019-06-26T10:43:32.734Z,27.40
2019-06-26T10:46:02.739Z,27.40
2019-06-26T10:48:32.928Z,27.70
2019-06-26T10:51:04.348Z,27.50
2019-06-26T10:53:34.186Z,27.20
2019-06-26T10:56:04.244Z,27.50
2019-06-26T10:58:33.997Z,27.50
2019-06-26T11:01:03.757Z,27.50
2019-06-26T11:03:33.835Z,27.40
2019-06-26T11:06:03.709Z,27.40
2019-06-26T11:08:33.574Z,27.50
2019-06-26T11:11:03.991Z,27.60
2019-06-26T11:13:34.320Z,27.60
2019-06-26T11:16:11.065Z,27.50
2019-06-26T11:18:41.583Z,27.60
2019-06-26T11:21:11.441Z,27.40
2019-06-26T11:23:41.370Z,27.30
2019-06-26T11:26:11.188Z,27.10
2019-06-26T11:28:41.278Z,27.30
2019-06-26T11:31:11.029Z,27.60
2019-06-26T11:33:40.908Z,27.60
2019-06-26T11:36:10.819Z,27.40
2019-06-26T11:38:40.581Z,27.50
2019-06-26T11:41:10.477Z,27.50
2019-06-26T11:43:40.365Z,27.50
2019-06-26T11:46:10.185Z,27.50
2019-06-26T11:48:39.961Z,27.40
2019-06-26T11:51:09.976Z,27.50
2019-06-26T11:53:40.270Z,27.70
2019-06-26T11:56:11.165Z,28.00
2019-06-26T11:58:40.942Z,28.20
2019-06-26T12:01:10.839Z,28.40
2019-06-26T12:03:40.671Z,28.60
2019-06-26T12:06:18.195Z,28.60
2019-06-26T12:08:41.922Z,28.20
2019-06-26T12:11:11.789Z,27.90
2019-06-26T12:13:41.693Z,27.90
2019-06-26T12:16:11.452Z,28.10
2019-06-26T12:18:41.229Z,28.40
2019-06-26T12:21:11.129Z,28.20
2019-06-26T12:23:40.946Z,28.00
2019-06-26T12:26:10.825Z,27.90
2019-06-26T12:28:40.572Z,27.90
2019-06-26T12:31:10.389Z,27.40
2019-06-26T12:33:40.268Z,27.40
2019-06-26T12:36:10.139Z,27.40
2019-06-26T12:38:40.177Z,27.60
2019-06-26T12:41:09.997Z,27.30
2019-06-26T12:43:39.886Z,26.80
2019-06-26T12:46:10.089Z,26.80
2019-06-26T12:48:39.799Z,27.30
2019-06-26T12:51:09.590Z,27.70
2019-06-26T12:53:39.425Z,27.80
2019-06-26T12:56:09.235Z,28.10
2019-06-26T12:58:39.107Z,27.80
2019-06-26T13:01:08.834Z,27.60
2019-06-26T13:03:38.671Z,27.70
2019-06-26T13:06:08.613Z,27.40
2019-06-26T13:08:38.415Z,27.40
2019-06-26T13:11:08.133Z,27.30
2019-06-26T13:13:38.973Z,27.50
2019-06-26T13:16:08.818Z,27.50
2019-06-26T13:18:38.603Z,27.50
2019-06-26T13:21:09.283Z,27.50
2019-06-26T13:23:39.147Z,27.60
2019-06-26T13:32:26.282Z,28.20
2019-06-26T13:34:56.087Z,28.20
2019-06-26T13:37:25.906Z,28.20
2019-06-26T13:39:55.645Z,28.30
2019-06-26T13:42:25.608Z,28.60
2019-06-26T13:44:55.452Z,28.50
2019-06-26T13:47:25.317Z,28.90
2019-06-26T13:49:55.242Z,29.10
2019-06-26T13:52:25.014Z,29.30
2019-06-26T13:54:57.232Z,28.80
2019-06-26T13:57:26.523Z,28.80
2019-06-26T13:59:56.436Z,29.10
2019-06-26T14:02:26.244Z,29.10
2019-06-26T14:04:56.155Z,28.50
2019-06-26T14:07:25.919Z,28.60
2019-06-26T14:09:55.725Z,29.00
2019-06-26T14:12:25.548Z,29.10
2019-06-26T14:14:57.746Z,29.00
2019-06-26T14:17:26.799Z,29.00
2019-06-26T14:19:56.690Z,29.00
2019-06-26T14:22:26.913Z,29.10
2019-06-26T14:24:56.835Z,29.30
2019-06-26T14:27:26.699Z,29.40
2019-06-26T14:29:56.452Z,29.30
2019-06-26T14:32:26.397Z,29.10
2019-06-26T14:34:58.028Z,29.20
2019-06-26T14:37:28.032Z,29.60
2019-06-26T14:39:58.071Z,29.90
2019-06-26T14:42:27.906Z,29.70
2019-06-26T14:44:57.701Z,29.70
2019-06-26T14:47:27.502Z,29.70
2019-06-26T14:49:57.318Z,29.60
2019-06-26T14:52:27.093Z,30.00
2019-06-26T14:54:56.833Z,30.00
2019-06-26T14:57:26.823Z,29.90
2019-06-26T14:59:56.723Z,30.10
2019-06-26T15:02:26.673Z,29.90
2019-06-26T15:04:56.429Z,29.70
2019-06-26T15:07:26.250Z,29.20
2019-06-26T15:09:56.264Z,29.30
2019-06-26T15:12:27.620Z,29.30
2019-06-26T15:14:57.739Z,29.30
2019-06-26T15:17:27.564Z,29.40
2019-06-26T15:19:57.619Z,29.60
2019-06-26T15:22:27.556Z,29.50
2019-06-26T15:24:57.278Z,29.40
2019-06-26T15:27:27.063Z,29.80
2019-06-26T15:29:56.815Z,30.00
2019-06-26T15:32:26.572Z,29.60
2019-06-26T15:34:56.452Z,29.30
2019-06-26T15:37:26.351Z,29.30
2019-06-26T15:39:56.209Z,29.50
2019-06-26T15:42:26.019Z,29.30
2019-06-26T15:44:56.138Z,29.00
2019-06-26T15:47:26.019Z,28.90
2019-06-26T15:49:55.830Z,29.00
2019-06-26T15:52:25.857Z,28.90
2019-06-26T15:54:55.643Z,29.10
2019-06-26T15:57:25.599Z,29.20
2019-06-26T15:59:55.465Z,29.20
2019-06-26T16:02:25.188Z,28.80
2019-06-26T16:04:55.015Z,28.80
2019-06-26T16:07:24.825Z,28.70
2019-06-26T16:09:54.599Z,28.90
2019-06-26T16:12:24.333Z,28.90
2019-06-26T16:14:54.096Z,28.70
2019-06-26T16:17:33.135Z,28.80
2019-06-26T16:20:03.006Z,29.20
2019-06-26T16:22:33.022Z,28.90
2019-06-26T16:25:03.111Z,29.00
2019-06-26T16:27:33.596Z,29.00
2019-06-26T16:30:03.609Z,29.40
2019-06-26T16:32:33.746Z,29.50
2019-06-26T16:35:04.226Z,29.90
2019-06-26T16:37:34.063Z,30.00
2019-06-26T16:40:04.029Z,30.00
2019-06-26T16:42:33.977Z,30.00
2019-06-26T16:45:04.003Z,30.00
2019-06-26T16:47:33.855Z,30.20
2019-06-26T16:50:03.722Z,30.50
2019-06-26T16:52:47.805Z,30.40
2019-06-26T16:55:05.565Z,30.30
2019-06-26T16:57:35.273Z,30.40
2019-06-26T17:00:09.899Z,30.40
2019-06-26T17:02:38.497Z,30.50
2019-06-26T17:05:08.311Z,30.50
2019-06-26T17:07:38.081Z,30.50
2019-06-26T17:16:40.200Z,30.30
2019-06-26T17:25:12.656Z,30.70
2019-06-26T17:27:42.403Z,30.70
2019-06-26T17:30:12.907Z,30.60
2019-06-26T17:32:42.732Z,30.70
2019-06-26T17:35:12.896Z,31.00
2019-06-26T17:37:42.716Z,31.10
2019-06-26T17:40:13.067Z,30.60
2019-06-26T17:42:43.045Z,30.20
2019-06-26T17:45:13.060Z,30.30
2019-06-26T17:47:42.966Z,30.10
2019-06-26T17:50:13.495Z,30.30
2019-06-26T17:52:43.536Z,30.30
2019-06-26T17:55:13.643Z,30.40
2019-06-26T17:57:47.284Z,30.00
2019-06-26T18:00:16.153Z,29.50
2019-06-26T18:02:46.054Z,29.00
2019-06-26T18:05:16.024Z,28.70
2019-06-26T18:07:46.082Z,28.90
2019-06-26T18:10:16.430Z,28.90
2019-06-26T18:12:46.152Z,29.00
2019-06-26T18:15:16.540Z,28.80
2019-06-26T18:17:49.920Z,28.70
2019-06-26T18:20:20.112Z,28.50
2019-06-26T18:23:05.448Z,28.30
2019-06-26T18:25:21.767Z,28.40
2019-06-26T18:27:51.689Z,28.50
2019-06-26T18:30:22.768Z,28.40
2019-06-26T18:32:53.398Z,27.80
2019-06-26T18:35:25.106Z,28.00
2019-06-26T18:37:54.970Z,28.00
2019-06-26T18:40:24.970Z,27.80
2019-06-26T18:42:54.988Z,27.20
2019-06-26T18:45:25.056Z,26.80
2019-06-26T18:47:54.838Z,26.90
2019-06-26T18:50:24.720Z,26.90
2019-06-26T18:52:54.627Z,26.60
2019-06-26T18:55:24.545Z,25.70
2019-06-26T18:57:54.479Z,24.60
2019-06-26T19:00:24.305Z,23.80
2019-06-26T19:02:54.179Z,23.30
2019-06-26T19:05:24.162Z,22.90
2019-06-26T19:07:54.044Z,22.70
2019-06-26T19:10:23.892Z,22.60
2019-06-26T19:12:53.730Z,22.30
2019-06-26T19:15:23.636Z,22.20
2019-06-26T19:17:54.720Z,22.00
2019-06-26T19:20:24.696Z,21.90
2019-06-26T19:22:54.592Z,21.70
2019-06-26T19:25:24.441Z,21.60
2019-06-26T19:27:54.373Z,21.30
2019-06-26T19:30:24.269Z,21.20
2019-06-26T19:32:54.360Z,21.10
2019-06-26T19:35:24.602Z,21.00
2019-06-26T19:37:54.501Z,20.80
2019-06-26T19:40:24.505Z,20.60
2019-06-26T19:42:54.310Z,20.50
2019-06-26T19:45:24.340Z,20.40
2019-06-26T19:48:16.828Z,20.20
2019-06-26T19:50:46.639Z,20.00
2019-06-26T19:53:16.511Z,19.80
2019-06-26T19:55:46.306Z,19.70
2019-06-26T19:58:16.298Z,19.60
2019-06-26T20:00:46.612Z,19.50
2019-06-26T20:03:16.482Z,19.40
2019-06-26T20:05:46.321Z,19.40
2019-06-26T20:08:16.093Z,19.30
2019-06-26T20:10:46.104Z,19.10
2019-06-26T20:13:16.372Z,19.10
2019-06-26T20:15:46.457Z,19.00
2019-06-26T20:18:16.268Z,19.00
2019-06-26T20:20:46.077Z,18.80
2019-06-26T20:23:15.884Z,18.70
2019-06-26T20:25:45.592Z,18.60
2019-06-26T20:28:15.342Z,18.50
2019-06-26T20:30:45.305Z,18.40
2019-06-26T20:33:15.434Z,18.40
2019-06-26T20:35:45.366Z,18.40
2019-06-26T20:38:15.544Z,18.30
2019-06-26T20:40:46.122Z,18.30
2019-06-26T20:43:16.307Z,18.20
2019-06-26T20:45:46.180Z,18.20
2019-06-26T20:48:16.017Z,18.10
2019-06-26T20:50:45.808Z,18.10
2019-06-26T20:53:15.568Z,18.10
2019-06-26T20:55:45.482Z,18.00
2019-06-26T20:58:15.284Z,18.00
2019-06-26T21:00:45.491Z,17.90
2019-06-26T21:03:15.449Z,17.90
2019-06-26T21:05:45.305Z,17.90
2019-06-26T21:08:15.934Z,17.80
2019-06-26T21:10:46.011Z,17.80
2019-06-26T21:13:16.232Z,17.80
2019-06-26T21:15:52.785Z,17.80
2019-06-26T21:18:22.403Z,17.70
2019-06-26T21:20:52.674Z,17.60
2019-06-26T21:23:23.569Z,17.60
2019-06-26T21:25:53.859Z,17.60
2019-06-26T21:28:23.756Z,17.60
2019-06-26T21:30:53.533Z,17.60
2019-06-26T21:33:23.431Z,17.50
2019-06-26T21:35:53.173Z,17.50
2019-06-26T21:38:23.100Z,17.30
2019-06-26T21:40:52.929Z,17.40
2019-06-26T21:43:22.622Z,17.40
2019-06-26T21:45:52.354Z,17.50
2019-06-26T21:48:22.185Z,17.50
2019-06-26T21:50:51.854Z,17.60
2019-06-26T21:53:21.650Z,17.60
2019-06-26T21:55:51.451Z,17.60
2019-06-26T21:58:21.298Z,17.50
2019-06-26T22:00:51.149Z,17.40
2019-06-26T22:03:21.074Z,17.50
2019-06-26T22:05:50.903Z,17.50
2019-06-26T22:08:21.057Z,17.60
2019-06-26T22:10:50.801Z,17.60
2019-06-26T22:13:20.696Z,17.50
2019-06-26T22:15:51.108Z,17.50
2019-06-26T22:18:21.455Z,17.60
2019-06-26T22:20:51.437Z,17.60
2019-06-26T22:23:21.334Z,17.60
2019-06-26T22:25:51.600Z,17.50
2019-06-26T22:28:21.888Z,17.50
2019-06-26T22:30:51.878Z,17.60
2019-06-26T22:33:21.737Z,17.60
2019-06-26T22:35:51.535Z,17.40
2019-06-26T22:38:21.364Z,17.30
2019-06-26T22:40:51.088Z,17.30
2019-06-26T22:43:21.001Z,17.40
2019-06-26T22:45:50.894Z,17.50
2019-06-26T22:48:20.676Z,17.50
2019-06-26T22:50:50.461Z,17.50
2019-06-26T22:53:20.369Z,17.50
2019-06-26T22:56:06.436Z,17.50
2019-06-26T22:58:21.967Z,17.50
2019-06-26T23:00:51.877Z,17.40
2019-06-26T23:03:21.689Z,17.40
2019-06-26T23:05:51.656Z,17.50
2019-06-26T23:08:21.431Z,17.40
2019-06-26T23:10:51.147Z,17.30
2019-06-26T23:13:21.139Z,17.30
2019-06-26T23:15:51.058Z,17.20
2019-06-26T23:18:20.915Z,17.10
2019-06-26T23:20:50.752Z,16.90
2019-06-26T23:23:20.734Z,16.90
2019-06-26T23:25:50.753Z,16.90
2019-06-26T23:28:20.779Z,16.90
2019-06-26T23:30:50.578Z,16.90
2019-06-26T23:33:20.419Z,16.70
2019-06-26T23:35:50.134Z,16.80
2019-06-26T23:38:20.085Z,16.80
2019-06-26T23:40:50.022Z,16.80
2019-06-26T23:43:19.889Z,16.80
2019-06-26T23:45:49.942Z,16.70
2019-06-26T23:48:19.761Z,16.70
2019-06-26T23:50:50.125Z,16.70
2019-06-26T23:53:19.996Z,16.70
